createdAt,value
2023-07-28T00:09:05.702Z,99922.09
2023-07-28T00:19:07.473Z,99935.94
2023-07-28T00:29:09.926Z,99927.00
2023-07-28T00:39:17.729Z,99921.94
2023-07-28T00:49:24.135Z,99920.06
2023-07-28T00:59:31.126Z,99937.44
2023-07-28T01:09:59.633Z,99928.31
2023-07-28T01:20:18.515Z,99933.72
2023-07-28T01:30:22.278Z,99926.81
2023-07-28T01:40:24.116Z,99911.13
2023-07-28T01:50:26.172Z,99911.28
2023-07-28T02:00:28.986Z,99904.34
2023-07-28T02:10:31.672Z,99894.25
2023-07-28T02:20:34.672Z,99910.44
2023-07-28T02:30:36.677Z,99890.88
2023-07-28T02:40:38.798Z,99898.13
2023-07-28T02:50:46.899Z,99894.06
2023-07-28T03:00:49.175Z,99906.53
2023-07-28T03:10:51.263Z,99898.75
2023-07-28T03:20:52.921Z,99918.69
2023-07-28T03:30:55.547Z,99913.09
2023-07-28T03:40:57.661Z,99906.00
2023-07-28T03:50:59.840Z,99930.09
2023-07-28T04:01:01.985Z,99922.03
2023-07-28T04:11:04.471Z,99931.78
2023-07-28T04:21:06.785Z,99933.28
2023-07-28T04:31:09.411Z,99916.78
2023-07-28T04:41:11.086Z,99926.41
2023-07-28T04:51:12.819Z,99915.78
2023-07-28T05:01:14.620Z,99918.16
2023-07-28T05:11:16.690Z,99917.28
2023-07-28T05:21:18.664Z,99920.34
2023-07-28T05:31:21.045Z,99918.81
2023-07-28T05:41:25.017Z,99903.31
2023-07-28T05:51:27.238Z,99927.56
2023-07-28T06:01:29.522Z,99930.44
2023-07-28T06:11:31.372Z,99929.09
2023-07-28T06:21:33.305Z,99921.34
2023-07-28T06:31:35.930Z,99938.03
2023-07-28T06:41:38.801Z,99929.44
2023-07-28T06:51:41.960Z,99927.78
2023-07-28T07:01:44.286Z,99925.75
2023-07-28T07:11:46.299Z,99925.78
2023-07-28T07:21:48.922Z,99938.63
2023-07-28T07:31:55.800Z,99937.75
2023-07-28T07:41:58.921Z,99933.38
2023-07-28T07:52:00.825Z,99928.47
2023-07-28T08:02:04.289Z,99918.53
2023-07-28T08:12:07.437Z,99912.13
2023-07-28T08:22:09.151Z,99918.34
2023-07-28T08:32:11.357Z,99919.84
2023-07-28T08:42:13.390Z,99918.53
2023-07-28T08:52:19.098Z,99893.75
2023-07-28T09:02:21.831Z,99885.66
2023-07-28T09:14:12.152Z,99898.50
2023-07-28T09:24:14.997Z,99877.94
2023-07-28T09:34:27.978Z,99874.72
2023-07-28T09:44:30.106Z,99874.41
2023-07-28T09:54:36.315Z,99866.31
2023-07-28T10:04:38.844Z,99843.06
2023-07-28T10:14:44.995Z,99840.69
2023-07-28T10:25:02.812Z,99845.22
2023-07-28T10:35:13.859Z,99850.97
2023-07-28T10:45:16.861Z,99845.06
2023-07-28T10:55:21.452Z,99832.06
2023-07-28T11:05:28.528Z,99830.56
2023-07-28T11:15:31.787Z,99815.25
2023-07-28T11:25:35.132Z,99798.38
2023-07-28T11:35:37.337Z,99794.00
2023-07-28T11:45:39.364Z,99800.06
2023-07-28T11:55:42.700Z,99793.00
2023-07-28T12:26:40.449Z,99755.25
2023-07-28T12:46:49.465Z,99725.25
2023-07-28T12:57:11.638Z,99723.72
2023-07-28T13:17:18.317Z,99727.59
2023-07-28T13:27:20.576Z,99727.28
2023-07-28T13:37:23.737Z,99711.09
2023-07-28T13:47:25.906Z,99714.81
2023-07-28T13:57:27.976Z,99717.50
2023-07-28T14:07:29.828Z,99710.41
2023-07-28T14:17:32.047Z,99700.81
2023-07-28T14:27:34.136Z,99698.47
2023-07-28T14:37:36.261Z,99684.63
2023-07-28T14:47:38.320Z,99683.78
2023-07-28T14:57:40.600Z,99684.47
2023-07-28T15:07:42.388Z,99689.34
2023-07-28T15:17:44.825Z,99684.97
2023-07-28T15:27:47.000Z,99675.88
2023-07-28T15:37:48.969Z,99665.94
2023-07-28T15:47:51.122Z,99665.94
2023-07-28T15:57:55.164Z,99663.41
2023-07-28T16:07:56.846Z,99646.72
2023-07-28T16:17:59.646Z,99662.22
2023-07-28T16:28:01.641Z,99644.19
2023-07-28T16:38:03.710Z,99661.56
2023-07-28T16:48:05.930Z,99667.97
2023-07-28T16:58:07.918Z,99676.56
2023-07-28T17:08:09.605Z,99677.56
2023-07-28T17:18:12.296Z,99665.44
2023-07-28T17:28:14.293Z,99672.00
2023-07-28T17:38:16.441Z,99661.38
2023-07-28T17:48:18.563Z,99676.72
2023-07-28T17:58:21.713Z,99675.19
2023-07-28T18:08:23.698Z,99691.88
2023-07-28T18:18:27.119Z,99697.44
2023-07-28T18:28:29.759Z,99702.66
2023-07-28T18:38:32.427Z,99732.34
2023-07-28T18:48:34.483Z,99740.41
2023-07-28T18:58:36.338Z,99733.19
2023-07-28T19:08:38.071Z,99741.25
2023-07-28T19:18:40.539Z,99751.38
2023-07-28T19:28:42.927Z,99750.19
2023-07-28T19:38:44.777Z,99750.69
2023-07-28T19:48:46.882Z,99763.84
2023-07-28T19:58:49.013Z,99765.88
2023-07-28T20:08:50.670Z,99778.16
2023-07-28T20:18:54.930Z,99779.00
2023-07-28T20:28:57.493Z,99780.88
2023-07-28T20:39:00.084Z,99784.56
2023-07-28T20:49:03.204Z,99780.03
2023-07-28T20:59:05.879Z,99783.91
2023-07-28T21:09:07.705Z,99784.22
2023-07-28T21:19:10.037Z,99790.97
2023-07-28T21:29:12.230Z,99803.63
2023-07-28T21:39:15.169Z,99801.41
2023-07-28T21:49:21.255Z,99807.47
2023-07-28T21:59:23.665Z,99816.09
2023-07-28T22:09:25.334Z,99805.97
2023-07-28T22:19:27.838Z,99818.09
2023-07-28T22:29:30.039Z,99827.03
2023-07-28T22:39:32.256Z,99826.03
2023-07-28T22:49:35.158Z,99812.72
2023-07-28T22:59:39.099Z,99817.94
2023-07-28T23:09:44.471Z,99803.94
2023-07-28T23:19:46.688Z,99806.63
2023-07-28T23:29:48.866Z,99794.50
2023-07-28T23:39:51.391Z,99771.06
2023-07-28T23:49:54.181Z,99779.84
2023-07-28T23:59:56.221Z,99782.38
